createdAt,value
2022-11-04T00:01:41.107Z,99818.88
2022-11-04T00:04:09.221Z,99822.84
2022-11-04T00:06:37.163Z,99821.31
2022-11-04T00:09:06.325Z,99810.66
2022-11-04T00:11:52.102Z,99806.16
2022-11-04T00:14:19.958Z,99803.00
2022-11-04T00:17:06.022Z,99790.06
2022-11-04T00:19:53.555Z,99787.28
2022-11-04T00:22:39.430Z,99788.41
2022-11-04T00:25:25.977Z,99778.88
2022-11-04T00:28:12.288Z,99790.97
2022-11-04T00:30:39.525Z,99781.25
2022-11-04T00:33:28.412Z,99790.09
2022-11-04T00:35:57.073Z,99780.75
2022-11-04T00:38:25.223Z,99783.59
2022-11-04T00:40:52.991Z,99777.34
2022-11-04T00:43:20.260Z,99776.16
2022-11-04T00:45:47.647Z,99774.56
2022-11-04T00:48:14.954Z,99767.88
2022-11-04T00:50:42.233Z,99782.69
2022-11-04T00:53:09.957Z,99767.72
2022-11-04T00:55:37.333Z,99778.25
2022-11-04T00:58:04.546Z,99767.47
2022-11-04T01:00:31.768Z,99773.91
2022-11-04T01:03:00.339Z,99767.31
2022-11-04T01:05:27.748Z,99766.38
2022-11-04T01:07:55.002Z,99758.00
2022-11-04T01:10:22.362Z,99753.47
2022-11-04T01:12:52.315Z,99750.69
2022-11-04T01:15:19.762Z,99750.31
2022-11-04T01:17:47.037Z,99747.53
2022-11-04T01:20:14.397Z,99751.59
2022-11-04T01:22:41.700Z,99747.59
2022-11-04T01:25:09.991Z,99735.50
2022-11-04T01:27:37.334Z,99743.94
2022-11-04T01:30:05.493Z,99743.78
2022-11-04T01:32:32.696Z,99742.91
2022-11-04T01:34:59.941Z,99739.94
2022-11-04T01:37:27.199Z,99741.47
2022-11-04T01:39:54.375Z,99734.53
2022-11-04T01:42:22.782Z,99722.75
2022-11-04T01:44:54.478Z,99732.72
2022-11-04T01:47:40.928Z,99740.63
2022-11-04T01:50:14.837Z,99744.91
2022-11-04T01:52:51.881Z,99738.88
2022-11-04T01:55:33.044Z,99743.91
2022-11-04T01:58:05.745Z,99728.09
2022-11-04T02:00:33.749Z,99732.13
2022-11-04T02:03:04.905Z,99711.03
2022-11-04T02:05:32.562Z,99716.22
2022-11-04T02:08:02.653Z,99717.81
2022-11-04T02:10:31.059Z,99728.75
2022-11-04T02:13:00.525Z,99728.47
2022-11-04T02:15:45.346Z,99721.44
2022-11-04T02:18:16.390Z,99714.16
2022-11-04T02:21:06.916Z,99695.56
2022-11-04T02:23:59.288Z,99701.31
2022-11-04T02:27:14.198Z,99710.19
2022-11-04T02:29:44.014Z,99700.56
2022-11-04T02:32:17.190Z,99706.25
2022-11-04T02:34:53.589Z,99714.09
2022-11-04T02:37:24.965Z,99717.88
2022-11-04T02:40:10.459Z,99719.09
2022-11-04T02:42:42.979Z,99715.13
2022-11-04T02:45:22.229Z,99719.53
2022-11-04T02:47:55.185Z,99709.06
2022-11-04T02:50:33.114Z,99704.94
2022-11-04T02:53:11.024Z,99696.44
2022-11-04T02:55:42.412Z,99692.09
2022-11-04T02:58:23.801Z,99692.47
2022-11-04T03:00:53.401Z,99691.88
2022-11-04T03:03:25.199Z,99694.25
2022-11-04T03:05:53.833Z,99696.94
2022-11-04T03:08:35.466Z,99691.88
2022-11-04T03:11:06.650Z,99683.25
2022-11-04T03:13:44.543Z,99683.97
2022-11-04T03:16:15.944Z,99683.63
2022-11-04T03:19:11.672Z,99672.09
2022-11-04T03:21:42.107Z,99662.94
2022-11-04T03:24:09.438Z,99660.56
2022-11-04T03:26:51.574Z,99661.31
2022-11-04T03:29:29.678Z,99660.97
2022-11-04T03:32:14.531Z,99657.34
2022-11-04T03:34:42.745Z,99658.50
2022-11-04T03:37:10.866Z,99647.75
2022-11-04T03:39:38.250Z,99644.06
2022-11-04T03:42:20.573Z,99655.63
2022-11-04T03:44:53.388Z,99644.25
2022-11-04T03:47:23.552Z,99642.06
2022-11-04T03:49:51.415Z,99644.69
2022-11-04T03:52:19.311Z,99641.09
2022-11-04T03:54:47.363Z,99641.72
2022-11-04T03:57:17.673Z,99650.16
2022-11-04T04:00:11.595Z,99642.13
2022-11-04T04:02:57.795Z,99645.38
2022-11-04T04:05:29.912Z,99659.03
2022-11-04T04:08:16.639Z,99668.13
2022-11-04T04:10:47.181Z,99662.16
2022-11-04T04:13:46.715Z,99656.81
2022-11-04T04:16:37.476Z,99654.03
2022-11-04T04:19:06.581Z,99649.47
2022-11-04T04:21:43.118Z,99651.91
2022-11-04T04:24:30.097Z,99660.03
2022-11-04T04:27:16.280Z,99668.72
2022-11-04T04:29:44.376Z,99656.75
2022-11-04T04:32:12.796Z,99659.78
2022-11-04T04:34:40.278Z,99663.00
2022-11-04T04:37:20.446Z,99667.06
2022-11-04T04:40:07.346Z,99666.53
2022-11-04T04:42:53.685Z,99663.38
2022-11-04T04:45:31.881Z,99671.63
2022-11-04T04:47:59.545Z,99658.97
2022-11-04T04:50:29.931Z,99665.53
2022-11-04T04:52:58.555Z,99663.81
2022-11-04T04:55:25.738Z,99671.22
2022-11-04T04:57:53.042Z,99672.00
2022-11-04T05:00:21.162Z,99675.53
2022-11-04T05:02:48.826Z,99670.16
2022-11-04T05:07:48.766Z,99657.78
2022-11-04T05:10:17.292Z,99659.69
2022-11-04T05:13:03.216Z,99668.03
2022-11-04T05:15:31.134Z,99666.75
2022-11-04T05:18:00.718Z,99662.47
2022-11-04T05:20:30.627Z,99674.19
2022-11-04T05:22:57.852Z,99680.88
2022-11-04T05:25:25.402Z,99676.63
2022-11-04T05:27:52.686Z,99673.25
2022-11-04T05:30:20.051Z,99672.53
2022-11-04T05:32:47.312Z,99667.09
2022-11-04T05:35:14.710Z,99670.69
2022-11-04T05:37:41.969Z,99677.94
2022-11-04T05:40:09.825Z,99670.34
2022-11-04T05:42:37.185Z,99677.38
2022-11-04T05:45:05.225Z,99676.03
2022-11-04T05:47:32.525Z,99683.06
2022-11-04T05:50:00.143Z,99688.56
2022-11-04T05:52:27.432Z,99696.72
2022-11-04T05:54:54.675Z,99698.63
2022-11-04T05:57:21.891Z,99701.72
2022-11-04T05:59:49.273Z,99699.75
2022-11-04T06:02:16.802Z,99705.25
2022-11-04T06:04:44.122Z,99711.78
2022-11-04T06:07:12.047Z,99709.41
2022-11-04T06:09:39.347Z,99713.75
2022-11-04T06:12:10.507Z,99709.69
2022-11-04T06:14:38.281Z,99719.44
2022-11-04T06:17:05.603Z,99724.78
2022-11-04T06:19:33.003Z,99726.91
2022-11-04T06:22:00.659Z,99738.38
2022-11-04T06:24:27.845Z,99744.84
2022-11-04T06:26:55.088Z,99742.81
2022-11-04T06:29:22.473Z,99739.09
2022-11-04T06:31:49.719Z,99737.56
2022-11-04T06:34:17.702Z,99734.41
2022-11-04T06:36:45.197Z,99744.38
2022-11-04T06:39:12.824Z,99746.94
2022-11-04T06:41:42.911Z,99737.31
2022-11-04T06:44:10.458Z,99741.16
2022-11-04T06:46:39.997Z,99738.88
2022-11-04T06:49:10.262Z,99738.28
2022-11-04T06:51:37.658Z,99742.91
2022-11-04T06:54:05.205Z,99741.97
2022-11-04T06:56:32.376Z,99744.09
2022-11-04T06:58:59.688Z,99746.03
2022-11-04T07:01:29.202Z,99751.56
2022-11-04T07:03:58.946Z,99752.59
2022-11-04T07:06:27.563Z,99753.63
2022-11-04T07:08:57.363Z,99753.72
2022-11-04T07:11:25.296Z,99761.53
2022-11-04T07:13:52.820Z,99765.78
2022-11-04T07:16:20.655Z,99769.97
2022-11-04T07:18:49.365Z,99776.63
2022-11-04T07:21:16.666Z,99778.78
2022-11-04T07:23:43.999Z,99781.09
2022-11-04T07:26:12.179Z,99790.16
2022-11-04T07:28:40.287Z,99791.94
2022-11-04T07:31:11.326Z,99798.28
2022-11-04T07:33:38.690Z,99793.59
2022-11-04T07:36:07.990Z,99801.59
2022-11-04T07:38:35.390Z,99805.59
2022-11-04T07:41:02.977Z,99816.34
2022-11-04T07:43:30.786Z,99825.28
2022-11-04T07:46:06.741Z,99821.38
2022-11-04T07:48:34.597Z,99826.13
2022-11-04T07:51:02.152Z,99826.63
2022-11-04T07:53:31.434Z,99843.19
2022-11-04T07:55:58.935Z,99843.06
2022-11-04T07:58:26.544Z,99846.06
2022-11-04T08:01:09.638Z,99841.44
2022-11-04T08:03:37.062Z,99848.13
2022-11-04T08:06:06.843Z,99856.78
2022-11-04T08:08:34.238Z,99856.00
2022-11-04T08:11:28.528Z,99864.84
2022-11-04T08:13:56.237Z,99865.44
2022-11-04T08:16:28.697Z,99875.22
2022-11-04T08:19:01.817Z,99882.41
2022-11-04T08:21:29.743Z,99883.53
2022-11-04T08:23:57.069Z,99879.81
2022-11-04T08:26:24.553Z,99885.72
2022-11-04T08:28:52.330Z,99882.31
2022-11-04T08:31:26.969Z,99890.13
2022-11-04T08:33:54.849Z,99896.50
2022-11-04T08:36:28.615Z,99899.41
2022-11-04T08:38:56.185Z,99901.47
2022-11-04T08:41:29.660Z,99896.84
2022-11-04T08:44:00.929Z,99910.63
2022-11-04T08:46:43.196Z,99910.25
2022-11-04T08:49:14.909Z,99910.41
2022-11-04T08:51:47.566Z,99921.69
2022-11-04T08:54:14.921Z,99935.75
2022-11-04T08:56:42.136Z,99933.84
2022-11-04T08:59:10.615Z,99949.28
2022-11-04T09:01:38.349Z,99948.22
2022-11-04T09:04:05.999Z,99956.78
2022-11-04T09:06:39.523Z,99961.72
2022-11-04T09:09:08.869Z,99966.00
2022-11-04T09:11:39.471Z,99968.28
2022-11-04T09:14:07.391Z,99960.72
2022-11-04T09:16:35.971Z,99972.59
2022-11-04T09:19:03.884Z,99980.09
2022-11-04T09:21:31.644Z,99988.03
2022-11-04T09:23:59.018Z,99991.13
2022-11-04T09:26:26.800Z,99992.63
2022-11-04T09:28:58.896Z,99998.25
2022-11-04T09:31:28.880Z,100006.06
2022-11-04T09:33:56.840Z,100005.19
2022-11-04T09:36:24.142Z,100004.69
2022-11-04T09:38:51.729Z,100013.09
2022-11-04T09:41:51.677Z,100014.16
2022-11-04T09:44:23.090Z,100023.03
2022-11-04T09:46:53.451Z,100039.47
2022-11-04T09:49:21.330Z,100034.88
2022-11-04T09:51:54.995Z,100046.22
2022-11-04T09:54:47.080Z,100055.06
2022-11-04T09:57:19.015Z,100050.34
2022-11-04T09:59:46.980Z,100058.00
2022-11-04T10:02:21.845Z,100064.13
2022-11-04T10:05:21.778Z,100060.78
2022-11-04T10:07:58.394Z,100084.50
2022-11-04T10:10:50.072Z,100082.13
2022-11-04T10:14:09.002Z,100084.69
2022-11-04T10:16:51.404Z,100098.84
2022-11-04T10:19:35.695Z,100116.59
2022-11-04T10:22:21.389Z,100110.19
2022-11-04T10:24:50.792Z,100122.13
2022-11-04T10:27:29.359Z,100124.00
2022-11-04T10:29:58.075Z,100135.03
2022-11-04T10:32:31.750Z,100149.66
2022-11-04T10:35:22.742Z,100152.16
2022-11-04T10:37:52.441Z,100161.97
2022-11-04T10:40:32.112Z,100171.84
2022-11-04T10:43:01.060Z,100169.41
2022-11-04T10:45:37.031Z,100165.13
2022-11-04T10:48:10.473Z,100165.72
2022-11-04T10:50:50.271Z,100163.75
2022-11-04T10:53:24.332Z,100178.03
2022-11-04T10:56:05.137Z,100187.56
2022-11-04T10:58:35.674Z,100183.00
2022-11-04T11:01:28.319Z,100183.09
2022-11-04T11:03:56.621Z,100184.16
2022-11-04T11:06:30.092Z,100194.88
2022-11-04T11:09:13.110Z,100191.84
2022-11-04T11:11:49.190Z,100193.13
2022-11-04T11:14:18.135Z,100204.59
2022-11-04T11:16:45.879Z,100205.47
2022-11-04T11:19:17.466Z,100210.69
2022-11-04T11:21:50.818Z,100205.44
2022-11-04T11:24:23.660Z,100207.50
2022-11-04T11:26:54.008Z,100215.28
2022-11-04T11:29:28.942Z,100216.50
2022-11-04T11:31:57.818Z,100222.88
2022-11-04T11:34:32.912Z,100213.13
2022-11-04T11:37:05.590Z,100237.63
2022-11-04T11:39:33.794Z,100251.63
2022-11-04T11:42:11.557Z,100240.78
2022-11-04T11:44:48.009Z,100257.63
2022-11-04T11:47:19.000Z,100262.88
2022-11-04T11:49:46.297Z,100263.97
2022-11-04T11:52:27.928Z,100277.25
2022-11-04T11:55:03.912Z,100279.00
2022-11-04T12:00:48.520Z,100285.63
2022-11-04T12:03:31.133Z,100293.38
2022-11-04T12:06:23.957Z,100308.03
2022-11-04T12:09:18.290Z,100298.50
2022-11-04T12:12:16.621Z,100300.06
2022-11-04T12:15:05.845Z,100309.63
2022-11-04T12:18:05.306Z,100316.63
2022-11-04T12:20:39.405Z,100320.75
2022-11-04T12:23:18.109Z,100328.97
2022-11-04T12:26:13.358Z,100334.91
2022-11-04T12:28:58.335Z,100347.13
2022-11-04T12:31:34.602Z,100346.56
2022-11-04T12:34:38.960Z,100359.00
2022-11-04T12:37:24.495Z,100369.06
2022-11-04T12:40:04.672Z,100381.00
2022-11-04T12:42:38.370Z,100375.75
2022-11-04T12:45:13.119Z,100391.06
2022-11-04T12:47:45.670Z,100396.22
2022-11-04T12:50:21.866Z,100396.94
2022-11-04T12:53:11.740Z,100402.28
2022-11-04T12:55:58.356Z,100395.88
2022-11-04T12:58:40.598Z,100391.66
2022-11-04T13:01:17.467Z,100408.03
2022-11-04T13:03:52.658Z,100412.06
2022-11-04T13:06:25.692Z,100407.94
2022-11-04T13:08:59.036Z,100431.69
2022-11-04T13:11:41.955Z,100428.00
2022-11-04T13:14:21.249Z,100435.09
2022-11-04T13:16:51.950Z,100455.19
2022-11-04T13:19:48.300Z,100460.63
2022-11-04T13:22:36.542Z,100458.19
2022-11-04T13:25:06.900Z,100463.06
2022-11-04T13:27:37.670Z,100471.03
2022-11-04T13:30:22.042Z,100497.31
2022-11-04T13:33:07.987Z,100487.13
2022-11-04T13:35:55.303Z,100505.31
2022-11-04T13:38:30.424Z,100514.44
2022-11-04T13:41:11.466Z,100500.59
2022-11-04T13:44:11.265Z,100515.75
2022-11-04T13:46:38.610Z,100515.41
2022-11-04T13:49:12.011Z,100525.59
2022-11-04T13:51:43.287Z,100528.03
2022-11-04T13:54:39.377Z,100538.47
2022-11-04T13:57:18.314Z,100539.44
2022-11-04T14:00:16.787Z,100549.81
2022-11-04T14:03:00.389Z,100553.56
2022-11-04T14:05:27.844Z,100551.59
2022-11-04T14:08:01.377Z,100563.44
2022-11-04T14:10:50.971Z,100564.09
2022-11-04T14:13:27.455Z,100583.22
2022-11-04T14:16:05.441Z,100581.97
2022-11-04T14:18:35.514Z,100589.44
2022-11-04T14:21:17.900Z,100589.66
2022-11-04T14:23:50.138Z,100594.28
2022-11-04T14:26:47.116Z,100604.88
2022-11-04T14:29:25.293Z,100605.66
2022-11-04T14:31:58.180Z,100623.88
2022-11-04T14:34:31.174Z,100622.41
2022-11-04T14:37:01.796Z,100627.44
2022-11-04T14:39:33.128Z,100622.56
2022-11-04T14:42:02.603Z,100625.00
2022-11-04T14:44:35.418Z,100629.88
2022-11-04T14:47:14.411Z,100628.41
2022-11-04T14:49:46.537Z,100635.72
2022-11-04T14:52:29.896Z,100644.31
2022-11-04T14:55:13.822Z,100647.06
2022-11-04T14:57:52.642Z,100659.75
2022-11-04T15:00:24.539Z,100669.00
2022-11-04T15:03:06.487Z,100671.59
2022-11-04T15:05:37.451Z,100674.69
2022-11-04T15:08:27.091Z,100666.56
2022-11-04T15:11:13.913Z,100683.63
2022-11-04T15:13:44.065Z,100681.50
2022-11-04T15:16:16.116Z,100688.47
2022-11-04T15:18:43.456Z,100707.47
2022-11-04T15:21:11.267Z,100699.19
2022-11-04T15:23:46.741Z,100703.13
2022-11-04T15:26:33.822Z,100703.44
2022-11-04T15:29:07.629Z,100720.00
2022-11-04T15:31:36.075Z,100700.34
2022-11-04T15:34:08.197Z,100723.09
2022-11-04T15:36:40.089Z,100712.38
2022-11-04T15:39:07.293Z,100697.09
2022-11-04T15:41:56.635Z,100707.34
2022-11-04T15:44:26.726Z,100687.69
2022-11-04T15:46:56.564Z,100693.03
2022-11-04T15:49:28.820Z,100702.81
2022-11-04T15:52:07.028Z,100701.34
2022-11-04T15:54:40.945Z,100705.22
2022-11-04T15:57:38.546Z,100708.94
2022-11-04T16:00:25.058Z,100715.75
2022-11-04T16:02:55.258Z,100725.16
2022-11-04T16:05:37.486Z,100739.16
2022-11-04T16:08:26.821Z,100758.13
2022-11-04T16:11:16.124Z,100770.00
2022-11-04T16:13:43.972Z,100751.28
2022-11-04T16:16:23.018Z,100773.72
2022-11-04T16:18:55.181Z,100763.63
2022-11-04T16:21:30.628Z,100780.06
2022-11-04T16:24:08.076Z,100790.75
2022-11-04T16:26:44.605Z,100801.50
2022-11-04T16:29:19.414Z,100809.72
2022-11-04T16:31:46.663Z,100822.34
2022-11-04T16:34:14.253Z,100826.72
2022-11-04T16:36:41.599Z,100846.22
2022-11-04T16:39:09.183Z,100847.50
2022-11-04T16:41:38.919Z,100840.53
2022-11-04T16:44:16.099Z,100849.22
2022-11-04T16:46:45.381Z,100858.16
2022-11-04T16:49:21.863Z,100854.31
2022-11-04T16:51:54.153Z,100848.91
2022-11-04T16:54:22.535Z,100866.13
2022-11-04T16:56:49.950Z,100857.13
2022-11-04T16:59:17.234Z,100868.00
2022-11-04T17:01:44.544Z,100869.41
2022-11-04T17:04:12.176Z,100872.38
2022-11-04T17:06:39.587Z,100882.63
2022-11-04T17:09:19.007Z,100902.09
2022-11-04T17:11:46.400Z,100909.47
2022-11-04T17:14:13.751Z,100918.94
2022-11-04T17:16:41.048Z,100911.44
2022-11-04T17:19:13.759Z,100918.19
2022-11-04T17:21:41.433Z,100928.91
2022-11-04T17:24:09.958Z,100938.84
2022-11-04T17:26:37.252Z,100946.47
2022-11-04T17:29:04.632Z,100936.88
2022-11-04T17:31:32.070Z,100934.34
2022-11-04T17:33:59.475Z,100942.72
2022-11-04T17:36:26.893Z,100951.88
2022-11-04T17:38:54.163Z,100957.19
2022-11-04T17:41:40.044Z,100964.56
2022-11-04T17:44:07.619Z,100971.50
2022-11-04T17:46:35.303Z,100977.19
2022-11-04T17:49:07.935Z,100982.25
2022-11-04T17:51:57.854Z,100986.16
2022-11-04T17:54:27.010Z,100998.13
2022-11-04T17:56:54.239Z,101007.13
2022-11-04T17:59:21.819Z,101012.28
2022-11-04T18:01:49.246Z,101014.59
2022-11-04T18:04:19.863Z,101018.31
2022-11-04T18:06:47.366Z,101022.22
2022-11-04T18:09:15.661Z,101023.09
2022-11-04T18:12:02.938Z,101030.81
2022-11-04T18:14:30.610Z,101047.56
2022-11-04T18:16:58.045Z,101052.47
2022-11-04T18:19:26.065Z,101059.84
2022-11-04T18:21:53.469Z,101069.88
2022-11-04T18:24:20.793Z,101065.66
2022-11-04T18:26:48.162Z,101076.47
2022-11-04T18:29:16.096Z,101078.63
2022-11-04T18:31:48.999Z,101073.44
2022-11-04T18:34:19.297Z,101077.63
2022-11-04T18:36:47.996Z,101073.00
2022-11-04T18:39:17.655Z,101076.81
2022-11-04T18:41:45.774Z,101077.00
2022-11-04T18:44:18.853Z,101084.34
2022-11-04T18:46:46.720Z,101091.38
2022-11-04T18:49:15.156Z,101104.75
2022-11-04T18:51:43.575Z,101106.28
2022-11-04T18:54:11.382Z,101106.34
2022-11-04T18:56:38.739Z,101101.34
2022-11-04T18:59:09.493Z,101106.09
2022-11-04T19:01:37.883Z,101107.13
2022-11-04T19:04:05.316Z,101109.94
2022-11-04T19:06:34.928Z,101117.41
2022-11-04T19:09:32.118Z,101111.91
2022-11-04T19:12:13.122Z,101114.66
2022-11-04T19:14:40.460Z,101123.03
2022-11-04T19:17:07.666Z,101119.88
2022-11-04T19:19:34.858Z,101124.63
2022-11-04T19:22:02.225Z,101128.50
2022-11-04T19:24:29.594Z,101130.31
2022-11-04T19:26:56.949Z,101140.88
2022-11-04T19:29:24.334Z,101133.19
2022-11-04T19:31:51.793Z,101136.94
2022-11-04T19:34:19.100Z,101141.63
2022-11-04T19:36:46.500Z,101142.75
2022-11-04T19:39:13.956Z,101150.91
2022-11-04T19:41:59.905Z,101152.53
2022-11-04T19:44:27.192Z,101153.03
2022-11-04T19:46:54.455Z,101159.59
2022-11-04T19:49:21.827Z,101160.16
2022-11-04T19:51:49.144Z,101163.44
2022-11-04T19:54:16.436Z,101165.44
2022-11-04T19:56:43.967Z,101169.44
2022-11-04T19:59:12.499Z,101169.34
2022-11-04T20:01:40.182Z,101172.09
2022-11-04T20:04:07.597Z,101168.72
2022-11-04T20:06:35.548Z,101175.53
2022-11-04T20:09:05.366Z,101171.91
2022-11-04T20:11:57.380Z,101175.84
2022-11-04T20:14:25.105Z,101187.19
2022-11-04T20:16:52.637Z,101190.47
2022-11-04T20:19:22.857Z,101193.69
2022-11-04T20:21:50.778Z,101197.84
2022-11-04T20:24:18.050Z,101195.03
2022-11-04T20:26:46.919Z,101202.44
2022-11-04T20:29:16.302Z,101205.06
2022-11-04T20:31:44.312Z,101196.19
2022-11-04T20:34:12.822Z,101195.56
2022-11-04T20:36:40.981Z,101202.00
2022-11-04T20:39:13.354Z,101207.59
2022-11-04T20:41:41.170Z,101211.59
2022-11-04T20:44:10.627Z,101212.50
2022-11-04T20:46:38.188Z,101202.63
2022-11-04T20:49:05.544Z,101216.81
2022-11-04T20:51:36.009Z,101216.03
2022-11-04T20:54:06.738Z,101209.41
2022-11-04T20:56:35.983Z,101217.25
2022-11-04T20:59:04.068Z,101229.00
2022-11-04T21:01:36.080Z,101222.59
2022-11-04T21:04:08.307Z,101234.84
2022-11-04T21:06:39.959Z,101238.69
2022-11-04T21:09:09.842Z,101242.25
2022-11-04T21:11:39.021Z,101244.94
2022-11-04T21:14:12.884Z,101247.91
2022-11-04T21:16:40.580Z,101246.75
2022-11-04T21:19:08.118Z,101246.88
2022-11-04T21:21:35.505Z,101247.19
2022-11-04T21:24:04.962Z,101258.06
2022-11-04T21:26:34.448Z,101260.53
2022-11-04T21:29:05.094Z,101264.22
2022-11-04T21:31:33.705Z,101262.22
2022-11-04T21:34:01.592Z,101270.56
2022-11-04T21:36:29.532Z,101269.63
2022-11-04T21:38:58.185Z,101276.25
2022-11-04T21:41:27.903Z,101281.91
2022-11-04T21:43:56.449Z,101274.53
2022-11-04T21:46:24.672Z,101278.22
2022-11-04T21:48:54.597Z,101286.16
2022-11-04T21:51:24.576Z,101277.63
2022-11-04T21:53:52.050Z,101286.25
2022-11-04T21:56:22.028Z,101287.47
2022-11-04T21:58:49.384Z,101289.16
2022-11-04T22:01:18.692Z,101286.22
2022-11-04T22:03:51.036Z,101283.78
2022-11-04T22:06:19.282Z,101285.84
2022-11-04T22:08:49.272Z,101285.72
2022-11-04T22:11:19.406Z,101286.03
2022-11-04T22:13:46.733Z,101294.41
2022-11-04T22:16:16.714Z,101291.50
2022-11-04T22:18:44.146Z,101295.47
2022-11-04T22:21:17.289Z,101287.88
2022-11-04T22:23:45.257Z,101291.50
2022-11-04T22:26:26.941Z,101284.56
2022-11-04T22:28:55.457Z,101295.56
2022-11-04T22:31:33.688Z,101299.94
2022-11-04T22:34:01.561Z,101293.44
2022-11-04T22:36:30.374Z,101296.84
2022-11-04T22:38:58.252Z,101297.38
2022-11-04T22:41:28.126Z,101297.47
2022-11-04T22:43:56.286Z,101308.84
2022-11-04T22:46:28.849Z,101306.09
2022-11-04T22:48:56.570Z,101304.41
2022-11-04T22:51:23.782Z,101300.50
2022-11-04T22:53:58.833Z,101300.88
2022-11-04T22:56:28.960Z,101302.53
2022-11-04T22:58:56.255Z,101305.16
2022-11-04T23:01:25.999Z,101305.28
2022-11-04T23:03:53.699Z,101308.50
2022-11-04T23:06:21.052Z,101310.66
2022-11-04T23:08:48.329Z,101312.00
2022-11-04T23:11:43.607Z,101324.13
2022-11-04T23:14:31.378Z,101324.94
2022-11-04T23:17:17.281Z,101330.75
2022-11-04T23:19:44.638Z,101328.53
2022-11-04T23:22:30.435Z,101331.00
2022-11-04T23:25:06.730Z,101324.19
2022-11-04T23:27:53.800Z,101332.28
2022-11-04T23:30:21.611Z,101343.38
2022-11-04T23:32:52.340Z,101348.66
2022-11-04T23:35:40.345Z,101343.34
2022-11-04T23:38:07.728Z,101342.88
2022-11-04T23:40:35.031Z,101351.97
2022-11-04T23:43:02.442Z,101353.41
2022-11-04T23:45:48.407Z,101353.41
2022-11-04T23:48:34.741Z,101356.88
2022-11-04T23:51:41.484Z,101357.88
2022-11-04T23:54:27.162Z,101354.72
2022-11-04T23:57:13.570Z,101356.56
2022-11-04T23:59:59.332Z,101357.56
